Lincoln City, OR

3:36 PM PDT on August 21, 2014 (GMT -0700)
MAP ROSE LODGE (P395) OR PSD | Change Station
CLOSE
Current Station
Personal Weather Station
Location: Otis, OR
Elevation: 173 ft
Nearby Weather Stations

Elev 173 ft 45.02 °N, 123.86 °W | Updated 36 minutes ago

Clear
Clear
74 °F
Feels Like 77 °F
N
5
Wind Variable Wind from SW
Gusts 0.0 mph

Today
High -- | Low -- °F
--% Chance of Precip.
Yesterday
High -- | Low -- °F
Precip. -- in
6:24 AM 8:12 PM
Waning Crescent, 12% visible
Pressure 30.06 in
Visibility 10.0 miles
Clouds Clear
Heat Index 77 °F
Dew Point 48 °F
Humidity 40%
Rainfall -999.00 in
Snow Depth Not available.
UV 7 out of 12
Pollen 3.50 out of 12
Air Quality Not available.
Flu Activity Not available.
METAR KONP 212215Z AUTO 29007KT 10SM CLR 18/12 A3006 RMK AO2

More Conditions Fewer Conditions

Pressure 30.06 in
Visibility 10.0 miles
Clouds Clear
Heat Index 77 °F
Dew Point 48 °F
Humidity 40%
Rainfall -999.00 in
Snow Depth Not available.
UV 7 out of 12
Pollen 3.50 out of 12
Air Quality Not available.
Flu Activity Not available.
METAR KONP 212215Z AUTO 29007KT 10SM CLR 18/12 A3006 RMK AO2

More Conditions Fewer Conditions

10-Day Weather Forecast

Almanac

Astronomy

Aug. 21, 2014 Rise Set
Actual Time 6:24 AM PDT 8:12 PM PDT
Civil Twilight 5:53 AM PDT 8:43 PM PDT
Nautical Twilight 5:15 AM PDT 9:21 PM PDT
Astronomical Twilight 4:33 AM PDT 10:02 PM PDT
Moon 2:55 AM PDT 5:48 PM PDT
Length of Visible Light 14h 49m
Length of Day
13h 47m
Tomorrow will be 2m 53s shorter.
Waning Crescent, 12% of the Moon is Illuminated
Today
Waning Crescent
Aug 25
New
Sep 2
First Quarter
Sep 8
Full
Sep 15
Last Quarter

Today's Extremes

State Highs State Lows

Community

WunderPhotos

Upload Photos

1,746,041 photos uploaded!

WunderBlogs® & News

Nearby

Snow Depth

Station Depth Elevation
Saddle Mountain 4 in 3250 ft
Seine Creek 0 in 2000 ft
Daly Lake 0 in 3600 ft
North Fork 1 in 3120 ft
Santiam Junction 0 in 3750 ft

Earthquake Activity

City Distance Mag. Time & Date
No recent earthquake activity has been reported nearby.
Minimum magnitude displayed is 2.5.

Coastal Water Temperatures

Place Temperature
South Beach, OR 52.0 °F
Charleston, OR 53.1 °F

Nearby Weather Stations